Time;durP1;ratioP1;P1;durP2;ratioP2;P2;SDS_P1;SDS_P2;PMS_P1;PMS_P2;Temp;Humidity;BMP_temperature;BMP_pressure;BME280_temperature;BME280_humidity;BME280_pressure;Samples;Min_cycle;Max_cycle;Signal;HPM_P1;HPM_P2
2022/07/06 00:04:18;;;;;;;0.10;0.00;;;;;;;12.21;100.00;102480.50;10463491;28;20048;-76
2022/07/06 00:09:20;;;;;;;0.00;0.00;;;;;;;11.90;100.00;102482.56;10446112;28;20076;-76
2022/07/06 00:14:21;;;;;;;0.00;0.00;;;;;;;11.87;100.00;102478.97;10445328;28;20041;-76
2022/07/06 00:19:23;;;;;;;0.10;0.10;;;;;;;11.64;100.00;102476.19;10462961;28;20049;-75
2022/07/06 00:24:25;;;;;;;0.10;0.10;;;;;;;11.58;100.00;102476.78;10463847;28;20041;-77
2022/07/06 00:29:28;;;;;;;0.00;0.00;;;;;;;11.46;100.00;102489.13;10462458;28;20040;-75
2022/07/06 00:34:30;;;;;;;0.00;0.00;;;;;;;11.64;100.00;102485.63;10444485;28;20045;-75
2022/07/06 00:39:32;;;;;;;0.20;0.10;;;;;;;11.66;100.00;102495.22;10444281;28;20053;-76
2022/07/06 00:44:34;;;;;;;0.05;0.05;;;;;;;11.83;100.00;102497.69;10461880;28;20040;-75
2022/07/06 00:54:56;;;;;;;0.00;0.00;;;;;;;12.06;100.00;102496.22;10461665;28;20040;-75
2022/07/06 00:59:58;;;;;;;0.43;0.28;;;;;;;12.19;100.00;102500.22;10443377;28;20061;-76
2022/07/06 01:05:00;;;;;;;0.30;0.10;;;;;;;12.16;100.00;102494.94;10460823;28;20047;-76
2022/07/06 01:10:09;;;;;;;0.00;0.00;;;;;;;12.29;100.00;102494.66;10443114;28;20167;-77
2022/07/06 01:15:23;;;;;;;0.00;0.00;;;;;;;12.43;100.00;102476.28;10462101;28;20056;-77
2022/07/06 01:20:26;;;;;;;0.03;0.03;;;;;;;12.58;100.00;102487.28;10442806;28;20083;-76
2022/07/06 01:25:28;;;;;;;0.10;0.10;;;;;;;12.69;100.00;102475.72;10442504;28;20072;-76
2022/07/06 01:37:22;;;;;;;0.53;0.10;;;;;;;12.65;100.00;102485.88;10460532;28;20040;-76
2022/07/06 01:42:24;;;;;;;0.10;0.10;;;;;;;12.70;100.00;102474.88;10441886;28;20045;-76
2022/07/06 01:47:26;;;;;;;0.03;0.03;;;;;;;12.62;100.00;102477.97;10441503;28;20041;-76
2022/07/06 01:52:29;;;;;;;0.00;0.00;;;;;;;12.49;100.00;102473.97;10459387;28;20033;-76
2022/07/06 01:57:30;;;;;;;0.10;0.00;;;;;;;12.34;100.00;102475.06;10459156;28;20033;-76
2022/07/06 02:02:32;;;;;;;0.00;0.00;;;;;;;12.31;100.00;102477.53;10441077;28;20056;-76
2022/07/06 02:07:34;;;;;;;0.10;0.10;;;;;;;12.24;100.00;102475.50;10458682;28;20037;-76
2022/07/06 02:12:36;;;;;;;0.00;0.00;;;;;;;12.00;100.00;102475.25;10439825;28;20095;-76
2022/07/06 02:17:39;;;;;;;0.20;0.20;;;;;;;12.01;100.00;102477.03;10458918;28;20048;-76
2022/07/06 02:22:40;;;;;;;0.10;0.10;;;;;;;12.10;100.00;102481.75;10459304;28;20045;-76
2022/07/06 02:27:42;;;;;;;0.00;0.00;;;;;;;12.14;100.00;102483.63;10439932;28;20041;-75
2022/07/06 02:32:45;;;;;;;0.00;0.00;;;;;;;12.28;100.00;102476.50;10440379;28;20047;-76
2022/07/06 02:37:48;;;;;;;0.22;0.10;;;;;;;12.18;100.00;102467.44;10439758;28;20041;-76
2022/07/06 02:42:50;;;;;;;0.00;0.00;;;;;;;12.36;100.00;102472.56;10457468;28;20404;-75
2022/07/06 02:47:55;;;;;;;0.00;0.00;;;;;;;12.33;100.00;102481.03;10439369;28;20055;-77
2022/07/06 02:52:58;;;;;;;0.00;0.00;;;;;;;12.23;100.00;102484.06;10439772;28;20052;-76
2022/07/06 02:58:00;;;;;;;0.00;0.00;;;;;;;12.28;100.00;102489.44;10439210;28;20045;-76
2022/07/06 03:03:04;;;;;;;0.05;0.05;;;;;;;12.28;100.00;102485.13;10439566;28;20503;-77
2022/07/06 03:08:06;;;;;;;0.20;0.10;;;;;;;12.25;100.00;102491.88;10457264;28;20048;-75
2022/07/06 03:13:10;;;;;;;0.13;0.13;;;;;;;12.15;100.00;102495.75;10439312;28;20045;-75
2022/07/06 03:18:11;;;;;;;0.00;0.00;;;;;;;12.12;100.00;102495.59;10438770;28;20052;-76
2022/07/06 03:23:14;;;;;;;0.32;0.13;;;;;;;12.29;100.00;102507.59;10438586;28;20045;-76
2022/07/06 03:28:15;;;;;;;0.00;0.00;;;;;;;12.30;100.00;102509.34;10446853;28;20480;-77
2022/07/06 03:33:17;;;;;;;0.10;0.10;;;;;;;12.11;100.00;102511.91;10446935;28;20083;-77
2022/07/06 03:38:19;;;;;;;0.20;0.10;;;;;;;12.26;100.00;102504.84;10446748;28;20052;-77
2022/07/06 03:43:22;;;;;;;0.38;0.22;;;;;;;12.18;100.00;102507.09;10465178;28;20041;-76
2022/07/06 03:48:24;;;;;;;0.35;0.22;;;;;;;12.20;100.00;102510.66;10450799;28;20042;-76
2022/07/06 03:53:27;;;;;;;0.10;0.10;;;;;;;12.15;100.00;102495.75;10438440;28;20052;-77
2022/07/06 03:58:29;;;;;;;1.35;0.63;;;;;;;12.28;100.00;102498.06;10457375;28;20408;-76
2022/07/06 04:03:31;;;;;;;0.05;0.05;;;;;;;12.34;100.00;102492.28;10471379;28;20041;-76
2022/07/06 04:08:35;;;;;;;0.10;0.10;;;;;;;12.24;100.00;102500.44;10445772;28;20139;-75
2022/07/06 04:13:38;;;;;;;0.10;0.10;;;;;;;12.43;100.00;102499.53;10463278;28;20037;-76
2022/07/06 04:18:41;;;;;;;0.00;0.00;;;;;;;12.52;100.00;102497.38;10445234;28;20049;-75
2022/07/06 04:23:44;;;;;;;1.98;0.30;;;;;;;12.58;100.00;102502.81;10444842;28;20053;-77
2022/07/06 04:28:47;;;;;;;0.15;0.10;;;;;;;12.69;100.00;102495.50;10444704;28;20049;-76
2022/07/06 04:33:49;;;;;;;0.00;0.00;;;;;;;12.73;100.00;102500.00;10428283;28;20040;-76
2022/07/06 04:38:51;;;;;;;0.00;0.00;;;;;;;12.80;100.00;102494.28;10443656;28;20049;-76
2022/07/06 04:43:53;;;;;;;0.35;0.35;;;;;;;12.91;100.00;102492.13;10444128;28;20053;-76
2022/07/06 04:48:56;;;;;;;0.08;0.08;;;;;;;13.01;100.00;102489.09;10444553;28;20059;-76
2022/07/06 04:54:04;;;;;;;1.13;0.13;;;;;;;13.01;100.00;102483.91;10444542;28;20072;-76
2022/07/06 04:59:08;;;;;;;0.57;0.38;;;;;;;13.18;100.00;102488.91;10443590;28;20049;-76
2022/07/06 05:04:10;;;;;;;0.00;0.00;;;;;;;13.11;100.00;102484.31;10443405;28;20045;-75
2022/07/06 05:09:13;;;;;;;0.22;0.10;;;;;;;13.18;100.00;102496.66;10443525;28;20057;-76
2022/07/06 05:14:15;;;;;;;0.32;0.00;;;;;;;13.25;100.00;102493.50;10443138;28;20099;-76
2022/07/06 05:19:19;;;;;;;0.08;0.08;;;;;;;13.47;100.00;102494.38;10443911;28;20638;-76
2022/07/06 05:24:22;;;;;;;0.10;0.10;;;;;;;13.39;100.00;102500.97;10443463;28;20045;-75
2022/07/06 05:29:24;;;;;;;0.10;0.10;;;;;;;13.49;100.00;102508.28;10442487;28;20060;-76
2022/07/06 05:34:26;;;;;;;1.45;0.20;;;;;;;13.65;100.00;102509.75;10444499;28;20037;-76
2022/07/06 05:39:28;;;;;;;0.10;0.10;;;;;;;13.75;100.00;102505.81;10442917;28;20047;-76
2022/07/06 05:44:30;;;;;;;0.10;0.10;;;;;;;13.94;100.00;102513.50;10442573;28;20044;-75
2022/07/06 05:54:52;;;;;;;;;;;;;;;14.23;100.00;102516.28;10461765;28;20041;-76
2022/07/06 05:59:54;;;;;;;0.00;0.00;;;;;;;14.42;100.00;102517.81;10442334;28;19924;-76
2022/07/06 06:04:55;;;;;;;0.22;0.10;;;;;;;14.56;100.00;102517.44;10440961;28;20492;-77
2022/07/06 06:09:57;;;;;;;0.10;0.00;;;;;;;14.42;100.00;102527.28;10441244;28;20135;-76
2022/07/06 06:14:59;;;;;;;0.10;0.10;;;;;;;14.45;100.00;102527.41;10442435;28;20071;-77
2022/07/06 06:20:02;;;;;;;0.00;0.00;;;;;;;14.62;100.00;102524.56;10458787;28;20162;-76
2022/07/06 06:25:04;;;;;;;0.00;0.00;;;;;;;14.87;100.00;102528.91;10424226;28;20045;-75
2022/07/06 06:37:06;;;;;;;0.10;0.10;;;;;;;15.30;100.00;102522.53;10458285;28;20032;-77
2022/07/06 06:42:08;;;;;;;0.20;0.00;;;;;;;15.61;100.00;102531.31;10457546;28;20041;-77
2022/07/06 06:47:15;;;;;;;3.13;0.28;;;;;;;15.54;100.00;102531.94;10438916;28;20452;-76
2022/07/06 06:52:17;;;;;;;0.00;0.00;;;;;;;15.74;100.00;102535.16;10457575;28;20060;-78
2022/07/06 06:57:38;;;;;;;0.40;0.30;;;;;;;15.85;100.00;102532.94;10444181;28;20040;-76
2022/07/06 07:02:40;;;;;;;0.05;0.05;;;;;;;15.65;100.00;102537.47;10456443;28;20095;-76
2022/07/06 07:07:43;;;;;;;0.30;0.08;;;;;;;16.17;100.00;102535.56;10456161;28;20041;-76
2022/07/06 07:12:46;;;;;;;0.20;0.20;;;;;;;16.49;99.82;102533.88;10457412;28;20041;-76
2022/07/06 07:17:48;;;;;;;0.00;0.00;;;;;;;16.50;96.24;102533.03;10442804;28;20053;-79
2022/07/06 07:22:50;;;;;;;0.10;0.10;;;;;;;16.61;97.73;102535.94;10447994;28;20114;-79
2022/07/06 07:27:52;;;;;;;0.13;0.10;;;;;;;17.03;94.91;102542.25;10432034;28;20107;-80
2022/07/06 07:32:55;;;;;;;0.05;0.00;;;;;;;17.64;89.32;102546.31;10444308;28;20048;-80
2022/07/06 07:37:57;;;;;;;0.75;0.45;;;;;;;18.21;85.78;102544.94;10446016;28;20480;-80
2022/07/06 07:42:59;;;;;;;0.00;0.00;;;;;;;18.36;85.73;102526.97;10447762;28;20049;-80
2022/07/06 07:48:01;;;;;;;0.00;0.00;;;;;;;19.36;85.46;102528.72;10434628;28;20037;-80
2022/07/06 07:53:03;;;;;;;0.15;0.15;;;;;;;17.81;83.33;102533.66;10451880;28;20072;-80
2022/07/06 07:58:05;;;;;;;0.00;0.00;;;;;;;18.21;78.18;102518.84;10433513;28;20404;-80
2022/07/06 08:03:07;;;;;;;0.00;0.00;;;;;;;18.45;76.42;102520.19;10433595;28;20315;-80
2022/07/06 08:08:08;;;;;;;4.53;0.13;;;;;;;18.23;80.66;102511.94;10447463;28;20116;-80
2022/07/06 08:13:10;;;;;;;0.00;0.00;;;;;;;18.08;80.19;102507.31;10453536;28;20511;-80
2022/07/06 08:18:12;;;;;;;0.00;0.00;;;;;;;17.65;78.93;102525.50;10427521;28;20056;-80
2022/07/06 08:23:13;;;;;;;0.00;0.00;;;;;;;18.23;76.25;102517.16;10416069;28;20059;-81
2022/07/06 08:28:15;;;;;;;0.93;0.73;;;;;;;17.99;76.91;102526.25;10450165;28;20418;-80
2022/07/06 08:33:17;;;;;;;0.00;0.00;;;;;;;18.78;71.94;102524.28;10438819;28;20087;-80
2022/07/06 08:38:18;;;;;;;0.38;0.25;;;;;;;19.08;76.42;102520.47;10452204;28;20091;-80
2022/07/06 08:43:20;;;;;;;0.00;0.00;;;;;;;18.93;71.81;102510.63;10452111;28;20049;-79
2022/07/06 08:48:24;;;;;;;0.00;0.00;;;;;;;19.84;66.26;102512.03;10454996;28;20120;-80
2022/07/06 08:53:26;;;;;;;0.13;0.10;;;;;;;20.86;64.44;102507.91;10442865;28;20668;-80
2022/07/06 08:58:28;;;;;;;0.00;0.00;;;;;;;20.21;64.93;102494.16;10439059;28;20090;-79
2022/07/06 09:03:30;;;;;;;0.00;0.00;;;;;;;20.86;55.30;102493.91;10446515;28;20068;-80
2022/07/06 09:08:32;;;;;;;0.00;0.00;;;;;;;21.04;50.68;102495.78;10456487;28;20113;-80
2022/07/06 09:13:34;;;;;;;0.00;0.00;;;;;;;19.84;52.52;102498.03;10456822;28;20052;-79
2022/07/06 09:18:38;;;;;;;0.10;0.10;;;;;;;21.58;50.26;102485.72;10456193;28;20461;-79
2022/07/06 09:23:39;;;;;;;0.00;0.00;;;;;;;20.30;53.62;102498.59;10437641;28;20049;-80
2022/07/06 09:28:45;;;;;;;0.00;0.00;;;;;;;20.32;52.61;102493.38;10428616;28;20041;-80
2022/07/06 09:33:58;;;;;;;0.00;0.00;;;;;;;20.15;56.96;102499.28;10455261;28;20052;-80
2022/07/06 09:39:18;;;;;;;0.10;0.05;;;;;;;19.38;58.12;102504.38;10454710;28;20041;-80
2022/07/06 09:44:22;;;;;;;0.00;0.00;;;;;;;19.40;58.79;102504.41;10441821;28;20040;-80
2022/07/06 09:49:24;;;;;;;0.17;0.17;;;;;;;20.60;53.72;102491.91;10447113;28;20033;-79
2022/07/06 09:54:26;;;;;;;0.00;0.00;;;;;;;20.00;50.57;102504.34;10429141;28;20061;-80
2022/07/06 09:59:30;;;;;;;0.00;0.00;;;;;;;20.11;57.97;102503.63;10448236;28;20045;-79
2022/07/06 10:04:32;;;;;;;0.00;0.00;;;;;;;19.50;56.19;102508.91;10449405;28;20052;-79
2022/07/06 10:09:34;;;;;;;0.00;0.00;;;;;;;19.31;56.15;102505.13;10433522;28;20059;-80
2022/07/06 10:14:37;;;;;;;0.00;0.00;;;;;;;19.11;54.68;102520.50;10417787;28;20144;-80
2022/07/06 10:19:43;;;;;;;0.00;0.00;;;;;;;20.19;58.96;102505.44;10448410;28;20492;-79
2022/07/06 10:24:49;;;;;;;0.00;0.00;;;;;;;20.95;51.22;102508.84;10433823;28;20466;-79
2022/07/06 10:29:51;;;;;;;0.30;0.30;;;;;;;21.70;50.64;102495.38;10450584;28;20053;-79
2022/07/06 10:34:53;;;;;;;0.00;0.00;;;;;;;21.48;55.36;102489.97;10449314;28;20091;-79
2022/07/06 10:45:23;;;;;;;0.00;0.00;;;;;;;21.27;48.21;102495.09;10451178;28;20075;-79
2022/07/06 10:50:34;;;;;;;0.00;0.00;;;;;;;21.27;45.67;102495.09;10428615;28;20045;-78
2022/07/06 10:55:40;;;;;;;0.00;0.00;;;;;;;21.84;53.52;102480.59;10449565;28;20041;-79
2022/07/06 11:00:56;;;;;;;0.10;0.00;;;;;;;20.57;50.90;102481.41;10448816;28;20048;-79
2022/07/06 11:06:26;;;;;;;0.00;0.00;;;;;;;21.02;45.99;102485.31;10425992;28;20041;-78
2022/07/06 11:11:34;;;;;;;0.00;0.00;;;;;;;21.42;53.78;102478.59;10445129;28;20060;-79
2022/07/06 11:16:47;;;;;;;0.00;0.00;;;;;;;21.28;47.92;102482.00;10432625;28;20120;-78
2022/07/06 11:21:52;;;;;;;0.00;0.00;;;;;;;21.69;50.65;102470.03;10450370;28;20049;-78
2022/07/06 11:26:55;;;;;;;0.00;0.00;;;;;;;21.63;51.93;102473.47;10454470;28;20048;-78
2022/07/06 11:32:00;;;;;;;0.00;0.00;;;;;;;21.66;48.41;102470.00;10450687;28;20052;-79
2022/07/06 11:37:14;;;;;;;0.10;0.10;;;;;;;21.64;46.93;102476.97;10432806;28;20052;-78
2022/07/06 11:42:17;;;;;;;0.00;0.00;;;;;;;21.44;46.17;102472.47;10446429;28;20037;-78
2022/07/06 11:47:20;;;;;;;0.00;0.00;;;;;;;21.67;49.09;102453.41;10452149;28;20041;-78
2022/07/06 11:52:26;;;;;;;0.08;0.08;;;;;;;21.89;52.43;102448.22;10454374;28;20037;-79
2022/07/06 11:57:31;;;;;;;0.00;0.00;;;;;;;22.12;49.88;102456.16;10455127;28;20045;-78
2022/07/06 12:02:33;;;;;;;0.00;0.00;;;;;;;22.17;46.10;102455.28;10453620;28;20527;-78
2022/07/06 12:07:35;;;;;;;0.00;0.00;;;;;;;21.16;43.01;102466.19;10456539;28;20041;-78
2022/07/06 12:12:39;;;;;;;0.00;0.00;;;;;;;22.29;43.47;102440.44;10417927;28;20135;-78
2022/07/06 12:17:47;;;;;;;0.00;0.00;;;;;;;22.98;45.16;102434.31;10451311;28;20051;-78
2022/07/06 12:22:49;;;;;;;2.92;0.30;;;;;;;21.36;49.24;102432.22;10433714;28;20477;-78
2022/07/06 12:27:51;;;;;;;0.20;0.10;;;;;;;22.54;46.49;102407.25;10431336;28;20562;-78
2022/07/06 12:33:15;;;;;;;0.10;0.10;;;;;;;22.94;44.14;102408.94;10449655;28;20037;-79
2022/07/06 12:38:29;;;;;;;0.00;0.00;;;;;;;23.04;46.06;102401.91;10447569;28;20064;-78
2022/07/06 12:43:40;;;;;;;1.00;0.10;;;;;;;22.69;44.14;102403.72;10424266;28;20488;-78
2022/07/06 12:48:53;;;;;;;0.10;0.00;;;;;;;22.66;43.78;102406.34;10436778;28;20345;-78
2022/07/06 12:54:15;;;;;;;0.00;0.00;;;;;;;21.23;43.53;102424.31;10428255;28;20040;-77
2022/07/06 12:59:23;;;;;;;0.00;0.00;;;;;;;22.15;46.18;102406.28;10421938;28;20044;-78
2022/07/06 13:04:26;;;;;;;0.00;0.00;;;;;;;21.61;47.94;102406.16;10439006;28;20063;-78
2022/07/06 13:09:29;;;;;;;0.30;0.20;;;;;;;21.89;44.77;102411.50;10447176;28;20082;-77
2022/07/06 13:14:31;;;;;;;0.10;0.00;;;;;;;21.48;50.14;102415.69;10444101;28;20056;-78
2022/07/06 13:19:33;;;;;;;0.10;0.00;;;;;;;21.49;52.08;102396.47;10438779;28;20044;-78
2022/07/06 13:24:35;;;;;;;0.00;0.00;;;;;;;22.69;50.24;102387.94;10431745;28;20040;-78
2022/07/06 13:29:40;;;;;;;0.00;0.00;;;;;;;22.28;49.03;102386.19;10452237;28;20055;-78
2022/07/06 13:34:42;;;;;;;0.30;0.00;;;;;;;21.66;48.10;102386.06;10448063;28;20053;-78
2022/07/06 13:39:43;;;;;;;0.00;0.00;;;;;;;21.74;48.99;102386.97;10411193;28;20041;-78
2022/07/06 13:44:45;;;;;;;0.00;0.00;;;;;;;22.04;45.07;102374.78;10450155;28;20099;-78
2022/07/06 13:49:47;;;;;;;0.35;0.00;;;;;;;22.46;44.94;102367.81;10443049;28;20044;-78
2022/07/06 13:54:49;;;;;;;0.00;0.00;;;;;;;22.48;47.87;102367.84;10443262;28;20082;-78
2022/07/06 13:59:51;;;;;;;0.00;0.00;;;;;;;22.21;44.88;102360.81;10444295;28;20040;-78
2022/07/06 14:04:52;;;;;;;0.20;0.10;;;;;;;22.06;45.04;102357.31;10446637;28;20124;-78
2022/07/06 14:09:54;;;;;;;0.75;0.10;;;;;;;22.35;47.70;102348.56;10450337;28;20103;-78
2022/07/06 14:14:55;;;;;;;0.00;0.00;;;;;;;22.00;47.08;102346.81;10452408;28;20048;-77
2022/07/06 14:19:57;;;;;;;0.00;0.00;;;;;;;22.00;47.78;102337.19;10430874;28;20496;-77
2022/07/06 14:24:59;;;;;;;0.00;0.00;;;;;;;22.01;46.83;102348.53;10436778;28;20041;-78
2022/07/06 14:30:01;;;;;;;0.17;0.00;;;;;;;22.38;48.15;102343.28;10451841;28;20033;-78
2022/07/06 14:35:03;;;;;;;0.00;0.00;;;;;;;21.74;49.24;102331.03;10451427;28;20044;-78
2022/07/06 14:40:06;;;;;;;0.10;0.10;;;;;;;21.62;46.77;102330.09;10432405;28;20082;-77
2022/07/06 14:45:08;;;;;;;0.10;0.10;;;;;;;22.17;47.04;102324.06;10442837;28;20049;-78
2022/07/06 14:50:10;;;;;;;0.00;0.00;;;;;;;21.98;47.14;102311.81;10431240;28;20045;-78
2022/07/06 14:55:12;;;;;;;0.00;0.00;;;;;;;21.79;48.76;102316.16;10448800;28;20570;-78
2022/07/06 15:00:15;;;;;;;0.10;0.10;;;;;;;22.01;49.61;102312.69;10448531;28;20052;-78
2022/07/06 15:05:17;;;;;;;0.10;0.00;;;;;;;22.03;52.46;102300.44;10419230;28;20049;-78
2022/07/06 15:10:19;;;;;;;0.00;0.00;;;;;;;22.31;53.71;102291.66;10428351;28;20053;-78
2022/07/06 15:15:21;;;;;;;0.10;0.10;;;;;;;21.90;49.80;102297.81;10450531;28;20060;-79
2022/07/06 15:20:42;;;;;;;0.10;0.00;;;;;;;21.70;47.28;102299.53;10446659;28;20504;-78
2022/07/06 15:25:44;;;;;;;0.00;0.00;;;;;;;21.80;49.89;102302.19;10408986;28;20045;-78
2022/07/06 15:30:55;;;;;;;0.10;0.10;;;;;;;21.58;48.44;102290.75;10447283;28;20538;-78
2022/07/06 15:35:57;;;;;;;0.00;0.00;;;;;;;21.69;50.52;102289.06;10450236;28;20053;-78
2022/07/06 15:41:01;;;;;;;0.00;0.00;;;;;;;21.36;49.72;102290.69;10450148;28;20087;-78
2022/07/06 15:46:03;;;;;;;0.08;0.00;;;;;;;21.24;48.16;102283.66;10432790;28;20045;-78
2022/07/06 15:51:05;;;;;;;0.00;0.00;;;;;;;21.07;47.80;102288.84;10432970;28;20204;-78
2022/07/06 15:56:07;;;;;;;0.00;0.00;;;;;;;20.97;47.72;102281.78;10447485;28;20419;-77
2022/07/06 16:01:09;;;;;;;0.00;0.00;;;;;;;21.23;48.58;102274.94;10426911;28;20045;-79
2022/07/06 16:06:11;;;;;;;0.00;0.00;;;;;;;21.46;50.95;102265.34;10448998;28;20506;-78
2022/07/06 16:11:14;;;;;;;0.00;0.00;;;;;;;21.38;49.45;102252.25;10431264;28;20073;-79
2022/07/06 16:16:15;;;;;;;0.00;0.00;;;;;;;21.41;50.04;102252.22;10427376;28;20041;-78
2022/07/06 16:21:18;;;;;;;0.00;0.00;;;;;;;21.22;48.49;102252.19;10419698;28;20393;-78
2022/07/06 16:26:19;;;;;;;0.00;0.00;;;;;;;21.18;48.74;102239.97;10424846;28;20037;-78
2022/07/06 16:31:21;;;;;;;0.03;0.00;;;;;;;21.06;50.60;102245.16;10445072;28;20041;-78
2022/07/06 16:36:23;;;;;;;0.00;0.00;;;;;;;21.04;50.80;102241.66;10421697;28;20565;-78
2022/07/06 16:41:25;;;;;;;0.00;0.00;;;;;;;20.83;50.61;102230.22;10449630;28;20106;-78
2022/07/06 16:46:29;;;;;;;0.20;0.10;;;;;;;20.81;50.15;102224.13;10450762;28;20041;-78
2022/07/06 16:51:31;;;;;;;0.00;0.00;;;;;;;20.79;51.97;102220.63;10436965;28;20164;-78
2022/07/06 16:56:33;;;;;;;0.00;0.00;;;;;;;20.69;54.61;102213.53;10426787;28;20040;-78
2022/07/06 17:01:35;;;;;;;0.00;0.00;;;;;;;20.71;56.78;102214.44;10435981;28;20497;-78
2022/07/06 17:06:36;;;;;;;0.08;0.08;;;;;;;20.63;58.15;102213.50;10422581;28;20043;-78
2022/07/06 17:11:38;;;;;;;0.00;0.00;;;;;;;20.18;61.83;102213.28;10427358;28;20054;-78
2022/07/06 17:16:40;;;;;;;0.00;0.00;;;;;;;20.09;63.51;102212.34;10454210;28;20697;-78
2022/07/06 17:21:41;;;;;;;0.20;0.20;;;;;;;20.15;66.81;102201.03;10445521;28;20281;-78
2022/07/06 17:26:43;;;;;;;0.00;0.00;;;;;;;20.18;63.41;102197.56;10444559;28;20041;-78
2022/07/06 17:31:45;;;;;;;0.03;0.00;;;;;;;20.13;62.84;102197.53;10429383;28;20048;-77
2022/07/06 17:36:46;;;;;;;0.13;0.13;;;;;;;20.05;62.89;102202.69;10448799;28;20049;-78
2022/07/06 17:41:48;;;;;;;0.10;0.10;;;;;;;20.18;63.29;102190.59;10448763;28;20052;-77
2022/07/06 17:46:50;;;;;;;0.03;0.03;;;;;;;20.08;62.58;102194.00;10435121;28;20045;-78
2022/07/06 17:51:52;;;;;;;0.10;0.10;;;;;;;20.28;65.49;102191.50;10434175;28;20061;-78
2022/07/06 17:56:54;;;;;;;0.08;0.08;;;;;;;20.21;63.00;102182.78;10447494;28;20083;-78
2022/07/06 18:01:55;;;;;;;0.20;0.20;;;;;;;20.21;63.88;102177.53;10432087;28;20050;-77
2022/07/06 18:06:57;;;;;;;0.08;0.03;;;;;;;20.23;65.21;102173.16;10446777;28;20041;-78
2022/07/06 18:11:59;;;;;;;0.00;0.00;;;;;;;20.03;63.35;102180.88;10447222;28;20052;-78
2022/07/06 18:17:01;;;;;;;0.20;0.20;;;;;;;19.83;61.73;102180.72;10432251;28;20431;-77
2022/07/06 18:22:03;;;;;;;0.25;0.10;;;;;;;19.89;62.58;102179.91;10448820;28;20044;-78
2022/07/06 18:27:05;;;;;;;0.10;0.00;;;;;;;19.82;62.96;102177.22;10448946;28;20029;-78
2022/07/06 18:32:06;;;;;;;0.15;0.15;;;;;;;19.71;62.32;102171.03;10442279;28;20045;-77
2022/07/06 18:37:08;;;;;;;0.00;0.00;;;;;;;19.89;64.96;102165.09;10424524;28;20041;-77
2022/07/06 18:42:10;;;;;;;0.30;0.20;;;;;;;19.72;66.96;102156.22;10443769;28;20055;-77
2022/07/06 18:47:11;;;;;;;0.00;0.00;;;;;;;19.63;66.53;102160.50;10440650;28;20045;-78
2022/07/06 18:52:13;;;;;;;0.17;0.10;;;;;;;19.69;67.71;102154.47;10445331;28;20048;-77
2022/07/06 18:57:15;;;;;;;0.20;0.00;;;;;;;19.69;67.71;102153.59;10445955;28;20042;-79
2022/07/06 19:02:16;;;;;;;0.22;0.15;;;;;;;19.57;69.08;102150.00;10433317;28;20075;-79
2022/07/06 19:07:19;;;;;;;0.00;0.00;;;;;;;19.61;69.91;102149.19;10445003;28;20041;-79
2022/07/06 19:12:20;;;;;;;0.00;0.00;;;;;;;19.47;69.48;102153.41;10446157;28;20443;-79
2022/07/06 19:17:22;;;;;;;0.57;0.25;;;;;;;19.59;70.74;102145.69;10447532;28;20041;-79
2022/07/06 19:22:23;;;;;;;0.00;0.00;;;;;;;19.36;73.11;102144.59;10427469;28;20036;-79
2022/07/06 19:27:25;;;;;;;0.10;0.10;;;;;;;19.32;73.32;102144.56;10439539;28;20090;-79
2022/07/06 19:32:27;;;;;;;0.22;0.20;;;;;;;19.21;73.74;102134.88;10431365;28;20048;-78
2022/07/06 19:37:29;;;;;;;0.00;0.00;;;;;;;19.25;72.49;102131.44;10430725;28;20056;-78
2022/07/06 19:42:31;;;;;;;0.10;0.00;;;;;;;19.19;68.94;102132.25;10442761;28;20056;-78
2022/07/06 19:47:33;;;;;;;0.75;0.28;;;;;;;19.14;70.21;102126.09;10449613;28;20025;-78
2022/07/06 19:52:35;;;;;;;0.10;0.10;;;;;;;19.14;69.61;102129.59;10432456;28;20048;-78
2022/07/06 19:57:37;;;;;;;0.20;0.13;;;;;;;19.06;70.41;102133.00;10448391;28;20066;-78
2022/07/06 20:02:38;;;;;;;0.00;0.00;;;;;;;19.01;70.38;102132.94;10430130;28;20057;-78
2022/07/06 20:07:40;;;;;;;0.03;0.03;;;;;;;19.10;70.44;102132.19;10422954;28;20071;-78
2022/07/06 20:12:42;;;;;;;0.10;0.10;;;;;;;19.00;71.80;102141.63;10451523;28;20488;-79
2022/07/06 20:17:44;;;;;;;0.60;0.13;;;;;;;18.99;73.24;102125.09;10445096;28;20041;-78
2022/07/06 20:22:45;;;;;;;0.20;0.20;;;;;;;19.09;73.16;102125.19;10428783;28;20045;-78
2022/07/06 20:27:47;;;;;;;0.10;0.10;;;;;;;18.98;75.07;102123.34;10451154;28;20053;-78
2022/07/06 20:32:54;;;;;;;0.00;0.00;;;;;;;18.77;76.54;102115.25;10451498;28;20399;-78
2022/07/06 20:37:55;;;;;;;0.20;0.13;;;;;;;18.94;80.27;102115.44;10441515;28;20051;-78
2022/07/06 20:42:57;;;;;;;0.00;0.00;;;;;;;18.56;89.55;102124.59;10434131;28;20458;-78
2022/07/06 20:48:19;;;;;;;0.10;0.10;;;;;;;18.48;91.44;102121.00;10444088;28;20076;-78
2022/07/06 20:53:20;;;;;;;0.10;0.10;;;;;;;18.41;93.87;102119.16;10446791;28;20212;-77
2022/07/06 20:58:22;;;;;;;0.40;0.15;;;;;;;18.26;96.03;102105.06;10435670;28;20128;-78
2022/07/06 21:03:23;;;;;;;0.10;0.08;;;;;;;18.27;95.38;102109.44;10449330;28;20107;-78
2022/07/06 21:08:31;;;;;;;0.00;0.00;;;;;;;18.33;93.95;102101.69;10454070;28;20041;-78
2022/07/06 21:13:33;;;;;;;0.10;0.10;;;;;;;18.14;93.26;102105.78;10448648;28;20049;-77
2022/07/06 21:18:34;;;;;;;7.97;0.32;;;;;;;18.13;94.57;102103.16;10452391;28;20115;-78
2022/07/06 21:23:36;;;;;;;0.00;0.00;;;;;;;18.08;94.44;102098.75;10436922;28;20037;-78
2022/07/06 21:28:38;;;;;;;0.00;0.00;;;;;;;18.05;94.61;102095.22;10435637;28;20075;-77
2022/07/06 21:33:40;;;;;;;0.10;0.10;;;;;;;18.15;94.16;102096.22;10454289;28;20045;-78
2022/07/06 21:38:42;;;;;;;0.20;0.20;;;;;;;18.06;94.54;102092.63;10452944;28;20084;-78
2022/07/06 21:43:44;;;;;;;0.20;0.10;;;;;;;18.06;95.71;102086.53;10452690;28;20549;-78
2022/07/06 21:48:46;;;;;;;0.15;0.13;;;;;;;18.13;94.90;102084.91;10453990;28;20041;-78
2022/07/06 21:53:47;;;;;;;0.30;0.17;;;;;;;18.18;94.18;102083.22;10452630;28;20049;-78
2022/07/06 21:58:49;;;;;;;0.45;0.22;;;;;;;18.19;95.36;102082.38;10453659;28;20106;-78
2022/07/06 22:03:53;;;;;;;0.20;0.10;;;;;;;18.16;95.90;102074.50;10434788;28;20049;-79
2022/07/06 22:08:55;;;;;;;0.00;0.00;;;;;;;18.23;96.66;102065.88;10453311;28;20392;-78
2022/07/06 22:13:57;;;;;;;2.63;0.55;;;;;;;18.28;96.54;102052.91;10435900;28;20132;-79
2022/07/06 22:18:58;;;;;;;0.10;0.10;;;;;;;18.31;97.05;102053.81;10452887;28;20052;-79
2022/07/06 22:24:00;;;;;;;0.28;0.17;;;;;;;18.32;97.34;102052.97;10452261;28;20102;-78
2022/07/06 22:29:02;;;;;;;0.00;0.00;;;;;;;18.34;98.32;102045.16;10451820;28;20091;-78
2022/07/06 22:34:03;;;;;;;0.00;0.00;;;;;;;18.27;99.96;102049.44;10434951;28;20131;-78
2022/07/06 22:39:05;;;;;;;0.30;0.00;;;;;;;18.20;99.61;102042.41;10433943;28;20373;-78
2022/07/06 22:44:07;;;;;;;0.20;0.17;;;;;;;18.23;99.99;102042.41;10445368;28;20048;-78
2022/07/06 22:49:09;;;;;;;0.43;0.10;;;;;;;18.32;100.00;102039.94;10450689;28;20056;-78
2022/07/06 22:54:11;;;;;;;0.35;0.10;;;;;;;18.31;100.00;102025.13;10428931;28;20045;-79
2022/07/06 22:59:12;;;;;;;0.20;0.20;;;;;;;18.11;100.00;102021.41;10448857;28;20041;-79
2022/07/06 23:04:14;;;;;;;0.55;0.50;;;;;;;18.26;100.00;102024.22;10449029;28;20067;-79
2022/07/06 23:09:16;;;;;;;0.43;0.17;;;;;;;18.13;100.00;102019.72;10426746;28;20041;-79
2022/07/06 23:14:18;;;;;;;0.00;0.00;;;;;;;18.08;100.00;102011.81;10446241;28;20111;-79
2022/07/06 23:19:19;;;;;;;1.98;0.55;;;;;;;18.07;100.00;102005.72;10429677;28;20048;-79
2022/07/06 23:24:22;;;;;;;0.47;0.28;;;;;;;17.93;100.00;101996.81;10429489;28;20053;-79
2022/07/06 23:29:23;;;;;;;0.28;0.28;;;;;;;17.85;100.00;101995.84;10431791;28;20041;-79
2022/07/06 23:34:25;;;;;;;0.10;0.10;;;;;;;17.84;100.00;101988.88;10450159;28;20037;-78
2022/07/06 23:39:27;;;;;;;0.15;0.15;;;;;;;17.79;100.00;101973.19;10446238;28;20488;-79